createdAt,value
2019-03-03T00:02:07.350Z,100350.70
2019-03-03T00:04:34.086Z,100349.73
2019-03-03T00:07:00.814Z,100349.81
2019-03-03T00:09:27.554Z,100348.36
2019-03-03T00:11:54.265Z,100347.61
2019-03-03T00:14:21.022Z,100338.45
2019-03-03T00:16:47.754Z,100340.84
2019-03-03T00:19:14.478Z,100344.30
2019-03-03T00:21:41.210Z,100345.67
2019-03-03T00:24:07.954Z,100342.90
2019-03-03T00:26:34.680Z,100333.39
2019-03-03T00:29:01.412Z,100338.05
2019-03-03T00:31:34.114Z,100330.39
2019-03-03T00:34:00.850Z,100338.94
2019-03-03T00:36:47.189Z,100337.69
2019-03-03T00:39:22.909Z,100337.02
2019-03-03T00:42:02.633Z,100348.66
2019-03-03T00:44:43.126Z,100349.82
2019-03-03T00:47:13.438Z,100353.15
2019-03-03T00:50:04.630Z,100354.03
2019-03-03T00:52:41.351Z,100340.70
2019-03-03T00:55:15.957Z,100335.85
2019-03-03T00:57:51.706Z,100349.84
2019-03-03T01:00:29.585Z,100352.71
2019-03-03T01:03:15.962Z,100346.81
2019-03-03T01:06:05.401Z,100349.09
2019-03-03T01:08:37.750Z,100345.87
2019-03-03T01:11:15.017Z,100342.37
2019-03-03T01:13:47.718Z,100354.84
2019-03-03T01:16:20.309Z,100347.26
2019-03-03T01:18:52.491Z,100346.81
2019-03-03T01:21:26.351Z,100343.62
2019-03-03T01:24:03.762Z,100333.80
2019-03-03T01:26:30.478Z,100339.47
2019-03-03T01:28:57.225Z,100337.83
2019-03-03T01:31:24.018Z,100327.30
2019-03-03T01:33:50.769Z,100324.92
2019-03-03T01:36:17.498Z,100328.48
2019-03-03T01:38:44.237Z,100327.77
2019-03-03T01:41:10.967Z,100336.17
2019-03-03T01:43:37.699Z,100333.72
2019-03-03T01:46:04.413Z,100326.66
2019-03-03T01:48:31.183Z,100335.23
2019-03-03T01:50:58.007Z,100331.79
2019-03-03T01:53:24.750Z,100325.95
2019-03-03T01:55:51.465Z,100335.41
2019-03-03T01:58:18.215Z,100329.61
2019-03-03T02:00:45.031Z,100328.92
2019-03-03T02:03:11.758Z,100329.84
2019-03-03T02:05:38.499Z,100322.06
2019-03-03T02:08:05.223Z,100325.95
2019-03-03T02:10:31.974Z,100313.20
2019-03-03T02:12:58.691Z,100311.38
2019-03-03T02:15:25.445Z,100309.33
2019-03-03T02:17:52.159Z,100300.84
2019-03-03T02:20:18.898Z,100293.41
2019-03-03T02:22:45.634Z,100287.08
2019-03-03T02:25:12.437Z,100287.52
2019-03-03T02:27:39.201Z,100284.05
2019-03-03T02:30:09.955Z,100277.56
2019-03-03T02:32:36.681Z,100276.66
2019-03-03T02:35:03.455Z,100271.00
2019-03-03T02:37:30.171Z,100272.36
2019-03-03T02:39:56.915Z,100270.58
2019-03-03T02:42:23.618Z,100271.00
2019-03-03T02:44:50.363Z,100273.86
2019-03-03T02:47:17.094Z,100266.89
2019-03-03T02:49:43.839Z,100262.44
2019-03-03T02:52:10.591Z,100256.16
2019-03-03T02:54:37.315Z,100257.13
2019-03-03T02:57:04.039Z,100251.92
2019-03-03T02:59:30.778Z,100251.00
2019-03-03T03:02:01.003Z,100254.36
2019-03-03T03:04:27.741Z,100253.09
2019-03-03T03:07:00.878Z,100248.14
2019-03-03T03:09:34.988Z,100248.83
2019-03-03T03:12:21.340Z,100242.75
2019-03-03T03:15:01.501Z,100238.72
2019-03-03T03:17:36.656Z,100245.14
2019-03-03T03:20:09.363Z,100240.91
2019-03-03T03:22:44.729Z,100237.33
2019-03-03T03:25:20.867Z,100236.41
2019-03-03T03:27:53.524Z,100235.72
2019-03-03T03:30:39.893Z,100237.94
2019-03-03T03:33:15.387Z,100244.34
2019-03-03T03:36:02.593Z,100227.94
2019-03-03T03:38:36.215Z,100227.09
2019-03-03T03:41:10.296Z,100218.86
2019-03-03T03:43:47.770Z,100221.73
2019-03-03T03:46:21.190Z,100218.45
2019-03-03T03:48:58.181Z,100225.06
2019-03-03T03:51:32.767Z,100223.64
2019-03-03T03:54:13.789Z,100216.73
2019-03-03T03:57:01.011Z,100222.75
2019-03-03T03:59:42.832Z,100219.27
2019-03-03T04:02:34.101Z,100221.19
2019-03-03T04:05:09.797Z,100220.02
2019-03-03T04:07:42.542Z,100218.23
2019-03-03T04:10:16.334Z,100220.49
2019-03-03T04:12:52.310Z,100220.36
2019-03-03T04:15:27.534Z,100219.02
2019-03-03T04:18:15.846Z,100229.19
2019-03-03T04:20:56.335Z,100231.17
2019-03-03T04:23:31.931Z,100234.05
2019-03-03T04:26:13.262Z,100234.77
2019-03-03T04:28:47.390Z,100233.22
2019-03-03T04:31:33.767Z,100242.84
2019-03-03T04:34:06.210Z,100244.27
2019-03-03T04:36:48.025Z,100244.75
2019-03-03T04:39:22.789Z,100244.20
2019-03-03T04:41:55.393Z,100241.67
2019-03-03T04:44:27.957Z,100247.44
2019-03-03T04:47:04.938Z,100247.02
2019-03-03T04:49:52.181Z,100236.77
2019-03-03T04:52:23.877Z,100227.96
2019-03-03T04:54:56.330Z,100231.84
2019-03-03T04:57:28.914Z,100214.59
2019-03-03T05:00:15.270Z,100211.17
2019-03-03T05:03:01.646Z,100208.64
2019-03-03T05:05:40.354Z,100203.92
2019-03-03T05:08:25.781Z,100214.02
2019-03-03T05:11:15.101Z,100223.80
2019-03-03T05:13:49.643Z,100231.61
2019-03-03T05:16:24.349Z,100234.94
2019-03-03T05:18:56.890Z,100233.48
2019-03-03T05:21:23.565Z,100235.67
2019-03-03T05:23:50.303Z,100232.06
2019-03-03T05:26:17.018Z,100224.11
2019-03-03T05:28:43.762Z,100227.41
2019-03-03T05:31:10.493Z,100222.36
2019-03-03T05:33:37.226Z,100213.81
2019-03-03T05:36:03.929Z,100219.63
2019-03-03T05:38:30.718Z,100222.50
2019-03-03T05:40:57.438Z,100220.33
2019-03-03T05:43:24.187Z,100203.66
2019-03-03T05:45:50.914Z,100205.63
2019-03-03T05:48:17.653Z,100205.40
2019-03-03T05:50:44.449Z,100207.88
2019-03-03T05:53:11.178Z,100209.95
2019-03-03T05:55:37.916Z,100208.42
2019-03-03T05:58:04.646Z,100212.41
2019-03-03T06:00:31.415Z,100212.59
2019-03-03T06:02:58.130Z,100210.25
2019-03-03T06:05:24.870Z,100196.73
2019-03-03T06:07:51.606Z,100197.40
2019-03-03T06:10:18.346Z,100188.85
2019-03-03T06:12:45.058Z,100178.75
2019-03-03T06:15:12.801Z,100165.09
2019-03-03T06:17:39.058Z,100161.97
2019-03-03T06:20:07.202Z,100152.50
2019-03-03T06:22:33.914Z,100152.06
2019-03-03T06:25:00.648Z,100152.29
2019-03-03T06:27:27.366Z,100163.75
2019-03-03T06:29:54.093Z,100157.41
2019-03-03T06:32:20.820Z,100146.85
2019-03-03T06:34:47.557Z,100152.77
2019-03-03T06:37:14.310Z,100150.56
2019-03-03T06:39:41.050Z,100153.01
2019-03-03T06:42:07.789Z,100163.50
2019-03-03T06:44:34.529Z,100163.75
2019-03-03T06:47:01.245Z,100157.27
2019-03-03T06:49:27.983Z,100149.88
2019-03-03T06:51:54.698Z,100144.35
2019-03-03T06:54:21.427Z,100152.72
2019-03-03T06:56:48.142Z,100157.60
2019-03-03T06:59:14.883Z,100155.91
2019-03-03T07:01:41.709Z,100151.02
2019-03-03T07:04:08.502Z,100144.26
2019-03-03T07:06:35.214Z,100151.61
2019-03-03T07:09:01.966Z,100151.76
2019-03-03T07:11:28.702Z,100154.28
2019-03-03T07:13:55.434Z,100158.51
2019-03-03T07:16:23.166Z,100164.88
2019-03-03T07:18:49.878Z,100172.70
2019-03-03T07:21:16.625Z,100173.64
2019-03-03T07:23:43.345Z,100170.76
2019-03-03T07:26:10.082Z,100168.33
2019-03-03T07:28:36.785Z,100156.76
2019-03-03T07:31:03.608Z,100140.69
2019-03-03T07:33:32.758Z,100154.72
2019-03-03T07:35:59.506Z,100152.61
2019-03-03T07:38:26.321Z,100154.41
2019-03-03T07:40:53.009Z,100157.12
2019-03-03T07:43:19.722Z,100157.80
2019-03-03T07:45:46.457Z,100165.23
2019-03-03T07:48:13.198Z,100160.11
2019-03-03T07:50:40.422Z,100163.30
2019-03-03T07:53:06.891Z,100171.09
2019-03-03T07:55:33.629Z,100163.82
2019-03-03T07:58:00.367Z,100161.70
2019-03-03T08:00:27.098Z,100171.58
2019-03-03T08:02:53.974Z,100159.06
2019-03-03T08:05:21.177Z,100166.94
2019-03-03T08:07:47.882Z,100156.13
2019-03-03T08:10:14.633Z,100156.31
2019-03-03T08:12:41.358Z,100159.18
2019-03-03T08:15:08.168Z,100158.61
2019-03-03T08:17:34.845Z,100170.36
2019-03-03T08:20:02.248Z,100167.34
2019-03-03T08:22:28.966Z,100163.34
2019-03-03T08:24:55.714Z,100151.58
2019-03-03T08:27:22.426Z,100159.77
2019-03-03T08:29:49.166Z,100166.05
2019-03-03T08:32:15.913Z,100154.34
2019-03-03T08:34:42.642Z,100154.72
2019-03-03T08:37:09.375Z,100160.41
2019-03-03T08:39:36.211Z,100161.48
2019-03-03T08:42:27.563Z,100148.08
2019-03-03T08:45:15.908Z,100153.89
2019-03-03T08:47:53.156Z,100155.83
2019-03-03T08:50:21.502Z,100139.15
2019-03-03T08:52:59.298Z,100157.31
2019-03-03T08:55:31.816Z,100167.25
2019-03-03T08:58:07.218Z,100163.48
2019-03-03T09:00:39.402Z,100171.41
2019-03-03T09:03:13.801Z,100160.00
2019-03-03T09:05:55.139Z,100164.31
2019-03-03T09:08:36.726Z,100158.11
2019-03-03T09:11:09.280Z,100161.00
2019-03-03T09:13:41.497Z,100165.05
2019-03-03T09:16:26.850Z,100170.95
2019-03-03T09:19:01.143Z,100162.96
2019-03-03T09:21:40.574Z,100151.63
2019-03-03T09:24:21.507Z,100159.81
2019-03-03T09:27:02.009Z,100150.52
2019-03-03T09:29:37.121Z,100155.45
2019-03-03T09:32:09.983Z,100149.12
2019-03-03T09:34:42.425Z,100153.84
2019-03-03T09:37:16.814Z,100160.99
2019-03-03T09:40:09.356Z,100157.09
2019-03-03T09:42:52.386Z,100151.64
2019-03-03T09:45:33.232Z,100155.48
2019-03-03T09:48:07.878Z,100152.80
2019-03-03T09:50:50.642Z,100155.59
2019-03-03T09:53:40.884Z,100151.38
2019-03-03T09:56:16.837Z,100157.70
2019-03-03T09:58:59.545Z,100159.42
2019-03-03T10:01:32.154Z,100147.22
2019-03-03T10:04:10.118Z,100149.27
2019-03-03T10:07:00.506Z,100138.73
2019-03-03T10:09:46.517Z,100141.16
2019-03-03T10:12:20.839Z,100119.72
2019-03-03T10:14:53.390Z,100123.45
2019-03-03T10:17:38.994Z,100123.98
2019-03-03T10:20:17.185Z,100133.71
2019-03-03T10:23:08.472Z,100127.89
2019-03-03T10:25:56.710Z,100116.77
2019-03-03T10:28:43.822Z,100122.69
2019-03-03T10:31:28.162Z,100132.28
2019-03-03T10:34:05.677Z,100113.00
2019-03-03T10:36:39.757Z,100120.88
2019-03-03T10:39:12.351Z,100114.39
2019-03-03T10:41:55.665Z,100120.56
2019-03-03T10:44:42.849Z,100113.09
2019-03-03T10:47:15.421Z,100101.06
2019-03-03T10:49:48.106Z,100102.67
2019-03-03T10:52:24.590Z,100099.19
2019-03-03T10:54:57.246Z,100112.63
2019-03-03T10:57:38.957Z,100094.86
2019-03-03T11:00:19.299Z,100098.39
2019-03-03T11:03:10.650Z,100088.19
2019-03-03T11:05:49.029Z,100091.55
2019-03-03T11:08:39.346Z,100085.99
2019-03-03T11:11:11.790Z,100080.97
2019-03-03T11:14:01.602Z,100087.65
2019-03-03T11:16:45.439Z,100072.23
2019-03-03T11:19:36.790Z,100076.96
2019-03-03T11:22:12.382Z,100075.47
2019-03-03T11:24:49.158Z,100067.37
2019-03-03T11:27:21.760Z,100069.69
2019-03-03T11:29:59.050Z,100066.03
2019-03-03T11:32:41.642Z,100065.48
2019-03-03T11:35:14.234Z,100066.34
2019-03-03T11:37:48.027Z,100072.48
2019-03-03T11:40:36.250Z,100071.67
2019-03-03T11:43:16.234Z,100061.41
2019-03-03T11:45:53.502Z,100055.47
2019-03-03T11:48:25.858Z,100057.92
2019-03-03T11:51:00.451Z,100049.25
2019-03-03T11:53:34.936Z,100046.72
2019-03-03T11:56:07.462Z,100029.11
2019-03-03T11:58:40.102Z,100042.97
2019-03-03T12:01:15.973Z,100034.13
2019-03-03T12:04:07.415Z,100030.94
2019-03-03T12:06:54.714Z,100029.78
2019-03-03T12:09:27.258Z,100021.30
2019-03-03T12:12:11.570Z,100025.70
2019-03-03T12:14:57.974Z,100025.36
2019-03-03T12:17:38.518Z,100017.56
2019-03-03T12:20:12.581Z,100010.68
2019-03-03T12:23:01.969Z,100001.56
2019-03-03T12:25:37.486Z,100012.64
2019-03-03T12:28:29.914Z,100020.48
2019-03-03T12:31:04.902Z,100009.06
2019-03-03T12:33:43.385Z,100004.16
2019-03-03T12:36:22.312Z,100006.42
2019-03-03T12:38:56.871Z,99995.04
2019-03-03T12:41:36.473Z,100003.84
2019-03-03T12:44:09.475Z,100013.92
2019-03-03T12:46:55.813Z,100000.82
2019-03-03T12:49:42.182Z,100003.79
2019-03-03T12:52:14.922Z,99995.48
2019-03-03T12:55:01.285Z,99988.15
2019-03-03T12:57:40.882Z,99984.92
2019-03-03T13:00:16.441Z,99980.81
2019-03-03T13:02:54.950Z,99974.62
2019-03-03T13:05:41.363Z,99966.31
2019-03-03T13:08:18.546Z,99977.07
2019-03-03T13:10:55.315Z,99963.58
2019-03-03T13:13:44.510Z,99966.67
2019-03-03T13:16:23.026Z,99958.33
2019-03-03T13:19:01.626Z,99957.88
2019-03-03T13:21:49.982Z,99950.67
2019-03-03T13:24:26.619Z,99941.25
2019-03-03T13:27:03.398Z,99936.20
2019-03-03T13:29:40.097Z,99930.49
2019-03-03T13:32:20.530Z,99932.77
2019-03-03T13:34:53.140Z,99918.61
2019-03-03T13:37:32.350Z,99917.28
2019-03-03T13:40:07.794Z,99923.81
2019-03-03T13:42:46.551Z,99907.03
2019-03-03T13:45:13.246Z,99908.80
2019-03-03T13:47:39.959Z,99895.57
2019-03-03T13:50:09.218Z,99893.30
2019-03-03T13:52:35.934Z,99883.88
2019-03-03T13:55:02.893Z,99900.32
2019-03-03T13:57:29.605Z,99882.41
2019-03-03T13:59:56.349Z,99865.72
2019-03-03T14:02:23.062Z,99853.47
2019-03-03T14:04:49.789Z,99846.53
2019-03-03T14:07:16.517Z,99854.67
2019-03-03T14:09:43.250Z,99853.67
2019-03-03T14:12:10.022Z,99856.01
2019-03-03T14:14:36.759Z,99847.05
2019-03-03T14:17:03.518Z,99828.57
2019-03-03T14:19:30.259Z,99807.16
2019-03-03T14:21:56.979Z,99847.14
2019-03-03T14:24:23.801Z,99832.41
2019-03-03T14:26:50.519Z,99843.63
2019-03-03T14:29:17.253Z,99833.33
2019-03-03T14:31:43.971Z,99821.01
2019-03-03T14:34:10.704Z,99828.98
2019-03-03T14:36:37.438Z,99820.05
2019-03-03T14:39:05.338Z,99822.47
2019-03-03T14:41:32.069Z,99817.83
2019-03-03T14:43:58.842Z,99823.08
2019-03-03T14:46:25.593Z,99816.88
2019-03-03T14:48:52.418Z,99818.97
2019-03-03T14:51:19.154Z,99810.55
2019-03-03T14:53:45.869Z,99809.41
2019-03-03T14:56:12.655Z,99809.44
2019-03-03T14:58:39.368Z,99805.34
2019-03-03T15:01:06.142Z,99800.18
2019-03-03T15:03:32.850Z,99800.82
2019-03-03T15:05:59.630Z,99793.63
2019-03-03T15:08:26.369Z,99800.92
2019-03-03T15:10:53.101Z,99798.16
2019-03-03T15:13:19.837Z,99795.16
2019-03-03T15:15:46.597Z,99794.98
2019-03-03T15:18:13.319Z,99790.98
2019-03-03T15:20:40.057Z,99791.86
2019-03-03T15:23:06.802Z,99791.52
2019-03-03T15:25:33.561Z,99780.44
2019-03-03T15:28:00.359Z,99781.72
2019-03-03T15:30:27.093Z,99774.67
2019-03-03T15:32:53.816Z,99772.23
2019-03-03T15:35:20.598Z,99770.95
2019-03-03T15:37:47.317Z,99766.88
2019-03-03T15:40:14.993Z,99767.05
2019-03-03T15:42:42.733Z,99760.81
2019-03-03T15:45:11.630Z,99762.75
2019-03-03T15:47:38.358Z,99766.70
2019-03-03T15:50:05.406Z,99766.58
2019-03-03T15:52:32.206Z,99749.09
2019-03-03T15:54:58.930Z,99749.44
2019-03-03T15:57:25.664Z,99739.30
2019-03-03T15:59:52.406Z,99739.59
2019-03-03T16:02:19.162Z,99733.23
2019-03-03T16:04:45.975Z,99715.98
2019-03-03T16:07:12.698Z,99726.92
2019-03-03T16:09:39.570Z,99715.70
2019-03-03T16:12:06.314Z,99710.48
2019-03-03T16:14:33.130Z,99704.88
2019-03-03T16:16:59.874Z,99694.71
2019-03-03T16:19:26.590Z,99700.53
2019-03-03T16:21:53.345Z,99699.23
2019-03-03T16:24:20.106Z,99700.68
2019-03-03T16:26:46.861Z,99698.07
2019-03-03T16:29:13.589Z,99699.90
2019-03-03T16:31:40.366Z,99696.63
2019-03-03T16:34:07.077Z,99701.23
2019-03-03T16:36:33.910Z,99703.03
2019-03-03T16:39:00.630Z,99708.39
2019-03-03T16:41:27.361Z,99703.49
2019-03-03T16:43:54.078Z,99693.27
2019-03-03T16:46:20.831Z,99692.27
2019-03-03T16:48:47.557Z,99689.02
2019-03-03T16:51:14.294Z,99686.25
2019-03-03T16:53:41.046Z,99690.97
2019-03-03T16:56:07.774Z,99695.47
2019-03-03T16:58:34.495Z,99693.55
2019-03-03T17:01:01.216Z,99691.48
2019-03-03T17:03:27.954Z,99691.81
2019-03-03T17:05:54.673Z,99695.03
2019-03-03T17:08:21.410Z,99695.75
2019-03-03T17:10:48.139Z,99696.70
2019-03-03T17:13:14.898Z,99692.12
2019-03-03T17:15:41.618Z,99701.90
2019-03-03T17:18:08.354Z,99696.70
2019-03-03T17:20:35.066Z,99693.75
2019-03-03T17:23:01.810Z,99690.66
2019-03-03T17:25:28.523Z,99687.55
2019-03-03T17:27:55.249Z,99683.80
2019-03-03T17:30:21.997Z,99677.09
2019-03-03T17:32:48.837Z,99678.53
2019-03-03T17:35:15.555Z,99676.56
2019-03-03T17:37:42.301Z,99671.55
2019-03-03T17:40:11.080Z,99658.80
2019-03-03T17:42:37.817Z,99653.81
2019-03-03T17:45:06.386Z,99648.39
2019-03-03T17:47:33.118Z,99640.08
2019-03-03T17:49:59.829Z,99636.52
2019-03-03T17:52:26.566Z,99637.00
2019-03-03T17:54:53.290Z,99625.62
2019-03-03T17:57:20.271Z,99627.44
2019-03-03T17:59:46.986Z,99633.30
2019-03-03T18:02:13.730Z,99626.09
2019-03-03T18:04:40.449Z,99616.05
2019-03-03T18:07:07.192Z,99619.13
2019-03-03T18:09:33.933Z,99610.34
2019-03-03T18:12:00.666Z,99613.49
2019-03-03T18:14:27.387Z,99607.13
2019-03-03T18:16:54.097Z,99605.67
2019-03-03T18:19:20.827Z,99603.39
2019-03-03T18:21:47.717Z,99595.89
2019-03-03T18:24:14.446Z,99594.94
2019-03-03T18:26:41.166Z,99593.45
2019-03-03T18:29:07.905Z,99583.74
2019-03-03T18:31:34.610Z,99593.62
2019-03-03T18:34:01.350Z,99584.82
2019-03-03T18:36:28.446Z,99582.56
2019-03-03T18:38:55.186Z,99581.26
2019-03-03T18:41:21.901Z,99579.30
2019-03-03T18:43:48.637Z,99587.20
2019-03-03T18:46:15.377Z,99589.05
2019-03-03T18:48:42.125Z,99590.56
2019-03-03T18:51:08.834Z,99586.80
2019-03-03T18:53:35.599Z,99577.79
2019-03-03T18:56:02.318Z,99579.93
2019-03-03T18:58:29.142Z,99576.84
2019-03-03T19:00:56.173Z,99583.50
2019-03-03T19:03:22.909Z,99571.12
2019-03-03T19:05:55.737Z,99564.56
2019-03-03T19:08:18.379Z,99566.30
2019-03-03T19:10:45.189Z,99564.13
2019-03-03T19:13:11.939Z,99561.69
2019-03-03T19:15:38.774Z,99554.68
2019-03-03T19:18:05.561Z,99542.43
2019-03-03T19:20:32.291Z,99537.91
2019-03-03T19:22:59.095Z,99540.11
2019-03-03T19:25:25.825Z,99540.48
2019-03-03T19:27:52.588Z,99528.62
2019-03-03T19:30:20.878Z,99530.77
2019-03-03T19:32:52.298Z,99538.90
2019-03-03T19:35:19.034Z,99529.69
2019-03-03T19:37:45.790Z,99540.17
2019-03-03T19:40:12.526Z,99533.37
2019-03-03T19:42:39.286Z,99532.23
2019-03-03T19:45:10.902Z,99533.37
2019-03-03T19:47:37.614Z,99535.34
2019-03-03T19:50:04.997Z,99532.53
2019-03-03T19:52:31.713Z,99538.42
2019-03-03T19:54:58.458Z,99533.94
2019-03-03T19:57:25.174Z,99533.10
2019-03-03T19:59:51.942Z,99528.48
2019-03-03T20:02:18.662Z,99530.06
2019-03-03T20:04:45.405Z,99526.16
2019-03-03T20:07:12.183Z,99524.54
2019-03-03T20:09:38.906Z,99530.67
2019-03-03T20:12:05.678Z,99534.41
2019-03-03T20:14:32.429Z,99527.48
2019-03-03T20:16:59.146Z,99527.00
2019-03-03T20:19:25.886Z,99525.93
2019-03-03T20:21:52.612Z,99528.06
2019-03-03T20:24:19.386Z,99527.89
2019-03-03T20:26:46.139Z,99516.19
2019-03-03T20:29:12.950Z,99519.45
2019-03-03T20:31:39.686Z,99501.42
2019-03-03T20:34:06.418Z,99503.48
2019-03-03T20:36:33.136Z,99498.62
2019-03-03T20:38:59.882Z,99495.72
2019-03-03T20:41:26.606Z,99494.94
2019-03-03T20:43:53.429Z,99488.42
2019-03-03T20:46:20.251Z,99472.63
2019-03-03T20:48:46.898Z,99476.53
2019-03-03T20:51:13.624Z,99469.02
2019-03-03T20:53:40.358Z,99466.75
2019-03-03T20:56:07.102Z,99448.46
2019-03-03T20:58:33.855Z,99444.27
2019-03-03T21:01:00.590Z,99437.47
2019-03-03T21:03:27.342Z,99440.53
2019-03-03T21:05:54.079Z,99444.47
2019-03-03T21:08:20.796Z,99439.78
2019-03-03T21:10:47.536Z,99431.45
2019-03-03T21:13:14.250Z,99422.85
2019-03-03T21:15:40.982Z,99420.13
2019-03-03T21:18:07.725Z,99412.09
2019-03-03T21:20:34.463Z,99408.82
2019-03-03T21:23:01.181Z,99414.09
2019-03-03T21:25:27.942Z,99420.33
2019-03-03T21:27:54.655Z,99421.08
2019-03-03T21:30:22.089Z,99420.52
2019-03-03T21:32:48.821Z,99407.37
2019-03-03T21:35:15.561Z,99410.34
2019-03-03T21:37:42.293Z,99402.95
2019-03-03T21:40:10.511Z,99397.10
2019-03-03T21:42:37.918Z,99383.80
2019-03-03T21:45:05.454Z,99370.27
2019-03-03T21:47:32.170Z,99355.95
2019-03-03T21:49:58.898Z,99347.80
2019-03-03T21:52:25.614Z,99333.54
2019-03-03T21:54:52.379Z,99328.79
2019-03-03T21:57:19.778Z,99316.95
2019-03-03T21:59:46.522Z,99322.34
2019-03-03T22:02:13.249Z,99327.66
2019-03-03T22:04:39.962Z,99342.27
2019-03-03T22:07:06.700Z,99343.45
2019-03-03T22:09:33.401Z,99331.79
2019-03-03T22:12:00.154Z,99343.30
2019-03-03T22:14:26.874Z,99338.08
2019-03-03T22:16:53.614Z,99327.02
2019-03-03T22:19:20.330Z,99314.73
2019-03-03T22:21:47.061Z,99306.30
2019-03-03T22:24:13.769Z,99294.27
2019-03-03T22:26:40.626Z,99284.12
2019-03-03T22:29:07.325Z,99275.02
2019-03-03T22:31:34.081Z,99267.69
2019-03-03T22:34:00.790Z,99254.34
2019-03-03T22:36:27.534Z,99254.75
2019-03-03T22:38:54.261Z,99252.39
2019-03-03T22:41:20.986Z,99241.31
2019-03-03T22:43:47.702Z,99237.09
2019-03-03T22:46:14.438Z,99233.20
2019-03-03T22:48:41.149Z,99228.63
2019-03-03T22:51:07.887Z,99217.48
2019-03-03T22:53:34.605Z,99212.59
2019-03-03T22:56:01.345Z,99210.91
2019-03-03T22:58:28.066Z,99207.74
2019-03-03T23:00:59.138Z,99206.25
2019-03-03T23:03:31.871Z,99207.01
2019-03-03T23:06:09.697Z,99209.22
2019-03-03T23:08:46.978Z,99199.30
2019-03-03T23:11:30.410Z,99205.69
2019-03-03T23:14:10.611Z,99212.27
2019-03-03T23:16:54.019Z,99204.98
2019-03-03T23:19:40.727Z,99200.59
2019-03-03T23:22:16.766Z,99193.77
2019-03-03T23:25:14.034Z,99195.39
2019-03-03T23:27:40.779Z,99190.55
2019-03-03T23:30:07.530Z,99184.56
2019-03-03T23:32:34.271Z,99189.51
2019-03-03T23:35:00.973Z,99185.47
2019-03-03T23:37:27.714Z,99184.66
2019-03-03T23:39:54.442Z,99176.86
2019-03-03T23:42:21.170Z,99175.84
2019-03-03T23:44:47.886Z,99171.39
2019-03-03T23:47:14.626Z,99171.58
2019-03-03T23:49:41.340Z,99166.86
2019-03-03T23:52:08.077Z,99162.96
2019-03-03T23:54:34.799Z,99169.40
2019-03-03T23:57:01.546Z,99156.26
2019-03-03T23:59:28.255Z,99149.05
